sensor_id;sensor_type;location;lat;lon;timestamp;pressure;altitude;pressure_sealevel;temperature;humidity
53506;BME280;39388;50.936;6.848;2023-03-01T00:01:27;102342.66;;;1.43;59.87
53506;BME280;39388;50.936;6.848;2023-03-01T00:03:58;102336.34;;;1.36;60.15
53506;BME280;39388;50.936;6.848;2023-03-01T00:06:29;102338.00;;;1.35;60.09
53506;BME280;39388;50.936;6.848;2023-03-01T00:08:59;102348.00;;;1.32;60.21
53506;BME280;39388;50.936;6.848;2023-03-01T00:11:31;102346.91;;;1.29;59.69
53506;BME280;39388;50.936;6.848;2023-03-01T00:14:03;102355.63;;;1.32;60.29
53506;BME280;39388;50.936;6.848;2023-03-01T00:16:37;102350.09;;;1.24;60.19
53506;BME280;39388;50.936;6.848;2023-03-01T00:19:17;102349.38;;;1.27;60.70
53506;BME280;39388;50.936;6.848;2023-03-01T00:21:48;102356.22;;;1.28;60.67
53506;BME280;39388;50.936;6.848;2023-03-01T00:24:19;102358.66;;;1.27;60.20
53506;BME280;39388;50.936;6.848;2023-03-01T00:26:53;102356.63;;;1.21;60.78
53506;BME280;39388;50.936;6.848;2023-03-01T00:29:25;102361.72;;;1.21;60.59
53506;BME280;39388;50.936;6.848;2023-03-01T00:31:55;102350.31;;;1.14;60.81
53506;BME280;39388;50.936;6.848;2023-03-01T00:34:26;102352.84;;;1.14;61.01
53506;BME280;39388;50.936;6.848;2023-03-01T00:36:56;102344.44;;;1.15;60.85
53506;BME280;39388;50.936;6.848;2023-03-01T00:39:35;102343.97;;;1.07;60.83
53506;BME280;39388;50.936;6.848;2023-03-01T00:42:05;102344.94;;;1.09;60.74
53506;BME280;39388;50.936;6.848;2023-03-01T00:44:35;102338.81;;;1.06;61.50
53506;BME280;39388;50.936;6.848;2023-03-01T00:47:06;102349.06;;;1.07;60.99
53506;BME280;39388;50.936;6.848;2023-03-01T00:49:36;102341.94;;;1.02;61.26
53506;BME280;39388;50.936;6.848;2023-03-01T00:52:06;102343.34;;;0.97;61.61
53506;BME280;39388;50.936;6.848;2023-03-01T00:54:37;102343.34;;;0.97;60.79
53506;BME280;39388;50.936;6.848;2023-03-01T00:57:07;102336.41;;;0.94;61.52
53506;BME280;39388;50.936;6.848;2023-03-01T00:59:37;102338.66;;;0.89;61.34
53506;BME280;39388;50.936;6.848;2023-03-01T01:02:08;102334.09;;;0.84;61.25
53506;BME280;39388;50.936;6.848;2023-03-01T01:04:38;102335.84;;;0.85;62.03
53506;BME280;39388;50.936;6.848;2023-03-01T01:07:08;102329.78;;;0.83;61.95
53506;BME280;39388;50.936;6.848;2023-03-01T01:09:39;102325.31;;;0.78;61.62
53506;BME280;39388;50.936;6.848;2023-03-01T01:12:09;102332.06;;;0.78;62.29
53506;BME280;39388;50.936;6.848;2023-03-01T01:14:40;102323.38;;;0.74;61.85
53506;BME280;39388;50.936;6.848;2023-03-01T01:17:10;102313.03;;;0.71;61.84
53506;BME280;39388;50.936;6.848;2023-03-01T01:19:41;102318.13;;;0.71;61.80
53506;BME280;39388;50.936;6.848;2023-03-01T01:22:11;102311.28;;;0.70;62.39
53506;BME280;39388;50.936;6.848;2023-03-01T01:24:41;102309.44;;;0.68;61.91
53506;BME280;39388;50.936;6.848;2023-03-01T01:27:12;102296.44;;;0.63;61.78
53506;BME280;39388;50.936;6.848;2023-03-01T01:29:42;102306.78;;;0.66;62.00
53506;BME280;39388;50.936;6.848;2023-03-01T01:32:12;102301.63;;;0.65;62.09
53506;BME280;39388;50.936;6.848;2023-03-01T01:34:43;102297.13;;;0.60;62.70
53506;BME280;39388;50.936;6.848;2023-03-01T01:37:13;102303.09;;;0.61;62.07
53506;BME280;39388;50.936;6.848;2023-03-01T01:39:43;102295.31;;;0.58;62.25
53506;BME280;39388;50.936;6.848;2023-03-01T01:42:18;102295.38;;;0.59;62.70
53506;BME280;39388;50.936;6.848;2023-03-01T01:48:10;102289.44;;;0.59;62.54
53506;BME280;39388;50.936;6.848;2023-03-01T01:50:42;102280.94;;;0.58;62.84
53506;BME280;39388;50.936;6.848;2023-03-01T01:53:17;102275.00;;;0.58;62.57
53506;BME280;39388;50.936;6.848;2023-03-01T01:55:54;102262.69;;;0.51;62.32
53506;BME280;39388;50.936;6.848;2023-03-01T01:58:29;102276.94;;;0.48;62.83
53506;BME280;39388;50.936;6.848;2023-03-01T02:01:04;102266.25;;;0.39;62.91
53506;BME280;39388;50.936;6.848;2023-03-01T02:03:37;102266.31;;;0.41;62.85
53506;BME280;39388;50.936;6.848;2023-03-01T02:06:28;102264.41;;;0.37;62.74
53506;BME280;39388;50.936;6.848;2023-03-01T02:09:02;102265.97;;;0.35;63.65
53506;BME280;39388;50.936;6.848;2023-03-01T02:11:36;102253.66;;;0.27;64.07
53506;BME280;39388;50.936;6.848;2023-03-01T02:14:07;102264.91;;;0.31;63.49
53506;BME280;39388;50.936;6.848;2023-03-01T02:16:38;102249.28;;;0.25;63.41
53506;BME280;39388;50.936;6.848;2023-03-01T02:19:17;102253.00;;;0.30;64.25
53506;BME280;39388;50.936;6.848;2023-03-01T02:21:56;102257.09;;;0.28;63.64
53506;BME280;39388;50.936;6.848;2023-03-01T02:24:56;102252.72;;;0.25;64.20
53506;BME280;39388;50.936;6.848;2023-03-01T02:27:36;102254.34;;;0.25;64.09
53506;BME280;39388;50.936;6.848;2023-03-01T02:30:09;102259.22;;;0.22;63.71
53506;BME280;39388;50.936;6.848;2023-03-01T02:32:42;102246.19;;;0.15;64.38
53506;BME280;39388;50.936;6.848;2023-03-01T02:35:14;102259.84;;;0.17;63.94
53506;BME280;39388;50.936;6.848;2023-03-01T02:37:45;102264.91;;;0.17;64.54
53506;BME280;39388;50.936;6.848;2023-03-01T02:40:18;102247.34;;;0.07;63.96
53506;BME280;39388;50.936;6.848;2023-03-01T02:42:56;102248.81;;;0.04;64.29
53506;BME280;39388;50.936;6.848;2023-03-01T02:45:27;102261.78;;;0.08;64.21
53506;BME280;39388;50.936;6.848;2023-03-01T02:47:57;102262.41;;;0.04;64.40
53506;BME280;39388;50.936;6.848;2023-03-01T02:53:21;102255.25;;;-0.02;65.28
53506;BME280;39388;50.936;6.848;2023-03-01T02:55:53;102250.00;;;-0.05;64.96
53506;BME280;39388;50.936;6.848;2023-03-01T02:58:24;102254.09;;;-0.07;65.04
53506;BME280;39388;50.936;6.848;2023-03-01T03:00:55;102246.09;;;-0.13;64.85
53506;BME280;39388;50.936;6.848;2023-03-01T03:03:26;102256.44;;;-0.10;64.72
53506;BME280;39388;50.936;6.848;2023-03-01T03:05:57;102246.00;;;-0.15;65.57
53506;BME280;39388;50.936;6.848;2023-03-01T03:08:27;102221.31;;;-0.31;65.49
53506;BME280;39388;50.936;6.848;2023-03-01T03:10:58;102248.34;;;-0.18;65.45
53506;BME280;39388;50.936;6.848;2023-03-01T03:13:28;102238.88;;;-0.20;65.72
53506;BME280;39388;50.936;6.848;2023-03-01T03:15:58;102229.31;;;-0.24;65.51
53506;BME280;39388;50.936;6.848;2023-03-01T03:18:29;102224.16;;;-0.26;65.45
53506;BME280;39388;50.936;6.848;2023-03-01T03:20:59;102224.94;;;-0.27;66.21
53506;BME280;39388;50.936;6.848;2023-03-01T03:23:29;102227.28;;;-0.30;65.95
53506;BME280;39388;50.936;6.848;2023-03-01T03:26:00;102225.59;;;-0.30;65.97
53506;BME280;39388;50.936;6.848;2023-03-01T03:28:32;102233.34;;;-0.28;66.14
53506;BME280;39388;50.936;6.848;2023-03-01T03:31:06;102229.03;;;-0.29;66.56
53506;BME280;39388;50.936;6.848;2023-03-01T03:33:36;102228.91;;;-0.31;66.34
53506;BME280;39388;50.936;6.848;2023-03-01T03:36:07;102233.34;;;-0.28;66.30
53506;BME280;39388;50.936;6.848;2023-03-01T03:38:43;102231.38;;;-0.32;66.14
53506;BME280;39388;50.936;6.848;2023-03-01T03:41:16;102232.34;;;-0.30;66.27
53506;BME280;39388;50.936;6.848;2023-03-01T03:43:47;102223.47;;;-0.37;66.52
53506;BME280;39388;50.936;6.848;2023-03-01T03:46:18;102220.94;;;-0.37;66.97
53506;BME280;39388;50.936;6.848;2023-03-01T03:48:49;102230.19;;;-0.37;66.38
53506;BME280;39388;50.936;6.848;2023-03-01T03:51:20;102235.94;;;-0.40;66.88
53506;BME280;39388;50.936;6.848;2023-03-01T03:53:52;102228.91;;;-0.44;66.70
53506;BME280;39388;50.936;6.848;2023-03-01T03:56:23;102223.56;;;-0.49;66.42
53506;BME280;39388;50.936;6.848;2023-03-01T03:58:55;102215.88;;;-0.50;66.88
53506;BME280;39388;50.936;6.848;2023-03-01T04:01:26;102194.03;;;-0.62;66.74
53506;BME280;39388;50.936;6.848;2023-03-01T04:03:56;102210.59;;;-0.53;67.02
53506;BME280;39388;50.936;6.848;2023-03-01T04:06:32;102205.13;;;-0.60;66.82
53506;BME280;39388;50.936;6.848;2023-03-01T04:09:03;102207.56;;;-0.61;67.10
53506;BME280;39388;50.936;6.848;2023-03-01T04:11:33;102190.53;;;-0.64;66.81
53506;BME280;39388;50.936;6.848;2023-03-01T04:14:04;102197.50;;;-0.60;67.15
53506;BME280;39388;50.936;6.848;2023-03-01T04:16:35;102200.06;;;-0.60;67.12
53506;BME280;39388;50.936;6.848;2023-03-01T04:19:05;102203.69;;;-0.56;67.28
53506;BME280;39388;50.936;6.848;2023-03-01T04:21:36;102204.53;;;-0.55;67.43
53506;BME280;39388;50.936;6.848;2023-03-01T04:24:07;102191.50;;;-0.62;67.18
53506;BME280;39388;50.936;6.848;2023-03-01T04:26:38;102182.50;;;-0.70;66.98
53506;BME280;39388;50.936;6.848;2023-03-01T04:29:09;102202.09;;;-0.67;67.39
53506;BME280;39388;50.936;6.848;2023-03-01T04:31:39;102189.13;;;-0.72;67.54
53506;BME280;39388;50.936;6.848;2023-03-01T04:34:09;102188.84;;;-0.77;67.75
53506;BME280;39388;50.936;6.848;2023-03-01T04:36:40;102191.38;;;-0.77;67.50
53506;BME280;39388;50.936;6.848;2023-03-01T04:39:10;102183.38;;;-0.83;67.90
53506;BME280;39388;50.936;6.848;2023-03-01T04:41:43;102192.91;;;-0.79;67.57
53506;BME280;39388;50.936;6.848;2023-03-01T04:44:14;102189.41;;;-0.81;67.59
53506;BME280;39388;50.936;6.848;2023-03-01T04:46:44;102196.44;;;-0.77;67.46
53506;BME280;39388;50.936;6.848;2023-03-01T04:49:14;102193.59;;;-0.81;67.73
53506;BME280;39388;50.936;6.848;2023-03-01T04:51:46;102190.22;;;-0.82;68.18
53506;BME280;39388;50.936;6.848;2023-03-01T04:54:16;102186.69;;;-0.84;67.69
53506;BME280;39388;50.936;6.848;2023-03-01T04:56:46;102183.94;;;-0.87;67.75
53506;BME280;39388;50.936;6.848;2023-03-01T04:59:17;102177.13;;;-0.88;68.41
53506;BME280;39388;50.936;6.848;2023-03-01T05:01:47;102183.06;;;-0.87;68.03
53506;BME280;39388;50.936;6.848;2023-03-01T05:04:18;102184.16;;;-0.84;67.67
53506;BME280;39388;50.936;6.848;2023-03-01T05:06:48;102178.78;;;-0.88;68.27
53506;BME280;39388;50.936;6.848;2023-03-01T05:09:18;102179.56;;;-0.89;68.35
53506;BME280;39388;50.936;6.848;2023-03-01T05:11:49;102182.75;;;-0.92;68.16
53506;BME280;39388;50.936;6.848;2023-03-01T05:14:20;102187.94;;;-0.91;68.37
53506;BME280;39388;50.936;6.848;2023-03-01T05:16:50;102182.38;;;-0.98;68.20
53506;BME280;39388;50.936;6.848;2023-03-01T05:19:20;102187.44;;;-0.98;68.74
53506;BME280;39388;50.936;6.848;2023-03-01T05:21:52;102187.53;;;-0.97;68.53
53506;BME280;39388;50.936;6.848;2023-03-01T05:24:35;102184.78;;;-1.00;68.28
53506;BME280;39388;50.936;6.848;2023-03-01T05:27:05;102190.06;;;-0.97;68.59
53506;BME280;39388;50.936;6.848;2023-03-01T05:29:36;102200.28;;;-0.95;68.80
53506;BME280;39388;50.936;6.848;2023-03-01T05:32:06;102192.50;;;-0.98;68.66
53506;BME280;39388;50.936;6.848;2023-03-01T05:34:38;102186.25;;;-1.03;68.64
53506;BME280;39388;50.936;6.848;2023-03-01T05:37:09;102195.91;;;-0.98;68.82
53506;BME280;39388;50.936;6.848;2023-03-01T05:39:39;102192.38;;;-1.00;68.93
53506;BME280;39388;50.936;6.848;2023-03-01T05:42:11;102185.38;;;-1.04;68.99
53506;BME280;39388;50.936;6.848;2023-03-01T05:44:42;102182.84;;;-1.04;68.58
53506;BME280;39388;50.936;6.848;2023-03-01T05:47:12;102161.75;;;-1.16;69.05
53506;BME280;39388;50.936;6.848;2023-03-01T05:49:42;102188.00;;;-1.02;69.14
53506;BME280;39388;50.936;6.848;2023-03-01T05:52:13;102192.00;;;-1.06;68.85
53506;BME280;39388;50.936;6.848;2023-03-01T05:54:43;102191.00;;;-1.08;68.75
53506;BME280;39388;50.936;6.848;2023-03-01T05:57:14;102192.66;;;-1.09;69.11
53506;BME280;39388;50.936;6.848;2023-03-01T05:59:45;102195.00;;;-1.12;69.17
53506;BME280;39388;50.936;6.848;2023-03-01T06:02:15;102184.75;;;-1.13;69.33
53506;BME280;39388;50.936;6.848;2023-03-01T06:04:46;102189.59;;;-1.16;69.00
53506;BME280;39388;50.936;6.848;2023-03-01T06:07:16;102185.53;;;-1.14;69.23
53506;BME280;39388;50.936;6.848;2023-03-01T06:09:46;102183.00;;;-1.14;69.38
53506;BME280;39388;50.936;6.848;2023-03-01T06:12:17;102182.91;;;-1.16;69.19
53506;BME280;39388;50.936;6.848;2023-03-01T06:14:47;102181.16;;;-1.17;69.50
53506;BME280;39388;50.936;6.848;2023-03-01T06:17:18;102170.72;;;-1.22;69.57
53506;BME280;39388;50.936;6.848;2023-03-01T06:19:48;102180.94;;;-1.20;69.33
53506;BME280;39388;50.936;6.848;2023-03-01T06:22:19;102182.47;;;-1.22;69.56
53506;BME280;39388;50.936;6.848;2023-03-01T06:24:49;102179.94;;;-1.22;69.72
53506;BME280;39388;50.936;6.848;2023-03-01T06:27:20;102161.41;;;-1.34;69.62
53506;BME280;39388;50.936;6.848;2023-03-01T06:29:50;102172.84;;;-1.28;69.26
53506;BME280;39388;50.936;6.848;2023-03-01T06:32:20;102186.91;;;-1.19;69.69
53506;BME280;39388;50.936;6.848;2023-03-01T06:34:51;102189.50;;;-1.18;69.76
53506;BME280;39388;50.936;6.848;2023-03-01T06:37:21;102186.13;;;-1.18;69.38
53506;BME280;39388;50.936;6.848;2023-03-01T06:39:52;102185.22;;;-1.19;69.87
53506;BME280;39388;50.936;6.848;2023-03-01T06:42:22;102188.75;;;-1.17;69.89
53506;BME280;39388;50.936;6.848;2023-03-01T06:44:52;102176.88;;;-1.18;69.54
53506;BME280;39388;50.936;6.848;2023-03-01T06:47:23;102184.66;;;-1.15;69.60
53506;BME280;39388;50.936;6.848;2023-03-01T06:49:53;102183.97;;;-1.12;69.58
53506;BME280;39388;50.936;6.848;2023-03-01T06:52:24;102176.19;;;-1.15;69.46
53506;BME280;39388;50.936;6.848;2023-03-01T06:54:54;102180.00;;;-1.09;69.60
53506;BME280;39388;50.936;6.848;2023-03-01T06:57:24;102162.28;;;-1.09;69.70
53506;BME280;39388;50.936;6.848;2023-03-01T06:59:55;102174.78;;;-0.98;69.60
53506;BME280;39388;50.936;6.848;2023-03-01T07:02:25;102174.31;;;-0.93;68.99
53506;BME280;39388;50.936;6.848;2023-03-01T07:04:56;102171.28;;;-0.87;69.62
53506;BME280;39388;50.936;6.848;2023-03-01T07:07:26;102172.47;;;-0.82;69.53
53506;BME280;39388;50.936;6.848;2023-03-01T07:09:56;102174.72;;;-0.73;69.28
53506;BME280;39388;50.936;6.848;2023-03-01T07:12:27;102183.00;;;-0.62;69.08
53506;BME280;39388;50.936;6.848;2023-03-01T07:14:57;102171.53;;;-0.57;68.78
53506;BME280;39388;50.936;6.848;2023-03-01T07:17:27;102166.75;;;-0.52;68.72
53506;BME280;39388;50.936;6.848;2023-03-01T07:19:58;102165.56;;;-0.44;68.92
53506;BME280;39388;50.936;6.848;2023-03-01T07:22:28;102169.19;;;-0.40;68.41
53506;BME280;39388;50.936;6.848;2023-03-01T07:24:58;102169.34;;;-0.37;68.57
53506;BME280;39388;50.936;6.848;2023-03-01T07:27:29;102161.97;;;-0.34;68.82
53506;BME280;39388;50.936;6.848;2023-03-01T07:29:59;102150.25;;;-0.32;68.51
53506;BME280;39388;50.936;6.848;2023-03-01T07:32:30;102149.88;;;-0.25;68.99
53506;BME280;39388;50.936;6.848;2023-03-01T07:35:00;102149.84;;;-0.11;68.75
53506;BME280;39388;50.936;6.848;2023-03-01T07:37:31;102163.06;;;0.11;68.18
53506;BME280;39388;50.936;6.848;2023-03-01T07:40:01;102156.38;;;0.27;68.24
53506;BME280;39388;50.936;6.848;2023-03-01T07:42:31;102156.03;;;0.49;67.93
53506;BME280;39388;50.936;6.848;2023-03-01T07:45:03;102155.47;;;0.98;66.72
53506;BME280;39388;50.936;6.848;2023-03-01T07:47:35;102143.72;;;1.30;65.95
53506;BME280;39388;50.936;6.848;2023-03-01T07:50:05;102149.81;;;1.49;65.36
53506;BME280;39388;50.936;6.848;2023-03-01T07:52:36;102148.34;;;1.52;65.28
53506;BME280;39388;50.936;6.848;2023-03-01T07:55:06;102152.47;;;1.50;64.54
53506;BME280;39388;50.936;6.848;2023-03-01T07:57:38;102145.19;;;1.42;64.43
53506;BME280;39388;50.936;6.848;2023-03-01T08:00:10;102147.91;;;1.30;64.83
53506;BME280;39388;50.936;6.848;2023-03-01T08:02:41;102139.78;;;1.20;65.56
53506;BME280;39388;50.936;6.848;2023-03-01T08:05:12;102137.59;;;1.12;65.66
53506;BME280;39388;50.936;6.848;2023-03-01T08:07:42;102134.81;;;1.07;65.94
53506;BME280;39388;50.936;6.848;2023-03-01T08:10:12;102141.72;;;1.09;66.03
53506;BME280;39388;50.936;6.848;2023-03-01T08:12:43;102146.97;;;1.13;65.42
53506;BME280;39388;50.936;6.848;2023-03-01T08:15:13;102140.16;;;1.12;65.46
53506;BME280;39388;50.936;6.848;2023-03-01T08:17:44;102140.50;;;1.18;65.70
53506;BME280;39388;50.936;6.848;2023-03-01T08:20:14;102139.78;;;1.20;65.70
53506;BME280;39388;50.936;6.848;2023-03-01T08:22:44;102137.88;;;1.31;65.28
53506;BME280;39388;50.936;6.848;2023-03-01T08:25:15;102139.16;;;1.39;65.61
53506;BME280;39388;50.936;6.848;2023-03-01T08:27:45;102145.44;;;1.46;64.67
53506;BME280;39388;50.936;6.848;2023-03-01T08:30:16;102147.38;;;1.50;64.64
53506;BME280;39388;50.936;6.848;2023-03-01T08:32:46;102144.13;;;1.53;64.27
53506;BME280;39388;50.936;6.848;2023-03-01T08:35:17;102144.19;;;1.54;64.56
53506;BME280;39388;50.936;6.848;2023-03-01T08:37:48;102155.94;;;1.67;63.85
53506;BME280;39388;50.936;6.848;2023-03-01T08:40:18;102152.94;;;1.75;64.79
53506;BME280;39388;50.936;6.848;2023-03-01T08:42:49;102149.13;;;1.83;64.11
53506;BME280;39388;50.936;6.848;2023-03-01T08:45:19;102141.38;;;1.96;63.28
53506;BME280;39388;50.936;6.848;2023-03-01T08:47:52;102147.81;;;2.06;63.00
53506;BME280;39388;50.936;6.848;2023-03-01T08:50:23;102137.81;;;2.09;63.18
53506;BME280;39388;50.936;6.848;2023-03-01T08:52:54;102131.16;;;2.11;63.15
53506;BME280;39388;50.936;6.848;2023-03-01T08:55:24;102135.03;;;2.21;63.11
53506;BME280;39388;50.936;6.848;2023-03-01T08:57:55;102134.31;;;2.24;63.09
53506;BME280;39388;50.936;6.848;2023-03-01T09:00:25;102140.75;;;2.34;62.38
53506;BME280;39388;50.936;6.848;2023-03-01T09:02:56;102138.59;;;2.41;62.70
53506;BME280;39388;50.936;6.848;2023-03-01T09:05:26;102135.66;;;2.50;62.36
53506;BME280;39388;50.936;6.848;2023-03-01T09:07:57;102125.63;;;2.53;62.03
53506;BME280;39388;50.936;6.848;2023-03-01T09:10:27;102134.56;;;2.61;61.85
53506;BME280;39388;50.936;6.848;2023-03-01T09:12:57;102128.88;;;2.67;61.57
53506;BME280;39388;50.936;6.848;2023-03-01T09:15:28;102124.09;;;2.73;61.74
53506;BME280;39388;50.936;6.848;2023-03-01T09:17:58;102125.19;;;2.79;61.38
53506;BME280;39388;50.936;6.848;2023-03-01T09:20:30;102114.38;;;2.83;61.37
53506;BME280;39388;50.936;6.848;2023-03-01T09:23:01;102125.66;;;2.88;61.08
53506;BME280;39388;50.936;6.848;2023-03-01T09:25:31;102117.44;;;2.93;60.82
53506;BME280;39388;50.936;6.848;2023-03-01T09:28:02;102105.84;;;3.00;60.23
53506;BME280;39388;50.936;6.848;2023-03-01T09:30:32;102080.00;;;2.92;60.36
53506;BME280;39388;50.936;6.848;2023-03-01T09:33:03;102091.03;;;3.10;60.13
53506;BME280;39388;50.936;6.848;2023-03-01T09:35:33;102105.97;;;3.20;59.40
53506;BME280;39388;50.936;6.848;2023-03-01T09:38:03;102099.47;;;3.27;59.34
53506;BME280;39388;50.936;6.848;2023-03-01T09:40:34;102098.09;;;3.33;59.01
53506;BME280;39388;50.936;6.848;2023-03-01T09:43:27;102089.78;;;3.37;58.68
53506;BME280;39388;50.936;6.848;2023-03-01T09:46:04;102091.91;;;3.46;58.78
53506;BME280;39388;50.936;6.848;2023-03-01T09:48:43;102091.66;;;3.60;58.76
53506;BME280;39388;50.936;6.848;2023-03-01T09:53:47;102081.28;;;3.75;58.25
53506;BME280;39388;50.936;6.848;2023-03-01T10:02:04;102077.16;;;3.96;57.40
53506;BME280;39388;50.936;6.848;2023-03-01T10:04:49;102080.75;;;4.02;56.76
53506;BME280;39388;50.936;6.848;2023-03-01T10:10:06;102064.03;;;4.08;56.31
53506;BME280;39388;50.936;6.848;2023-03-01T10:12:40;102069.66;;;4.21;56.36
53506;BME280;39388;50.936;6.848;2023-03-01T10:15:12;102077.66;;;4.28;55.76
53506;BME280;39388;50.936;6.848;2023-03-01T10:18:01;102077.25;;;4.39;55.91
53506;BME280;39388;50.936;6.848;2023-03-01T10:23:23;102063.25;;;4.50;55.15
53506;BME280;39388;50.936;6.848;2023-03-01T10:26:01;102063.38;;;4.53;54.78
53506;BME280;39388;50.936;6.848;2023-03-01T10:29:00;102053.28;;;4.56;53.91
53506;BME280;39388;50.936;6.848;2023-03-01T10:31:52;102050.22;;;4.65;54.23
53506;BME280;39388;50.936;6.848;2023-03-01T10:40:00;102039.50;;;4.95;54.03
53506;BME280;39388;50.936;6.848;2023-03-01T10:42:39;102039.88;;;5.04;54.04
53506;BME280;39388;50.936;6.848;2023-03-01T10:45:30;102041.22;;;5.17;53.87
53506;BME280;39388;50.936;6.848;2023-03-01T10:50:48;102027.97;;;5.28;52.92
53506;BME280;39388;50.936;6.848;2023-03-01T10:53:33;102032.47;;;5.33;52.74
53506;BME280;39388;50.936;6.848;2023-03-01T10:56:05;102034.31;;;5.37;52.58
53506;BME280;39388;50.936;6.848;2023-03-01T11:01:28;102033.72;;;5.45;52.06
53506;BME280;39388;50.936;6.848;2023-03-01T11:06:37;102028.81;;;5.51;51.60
53506;BME280;39388;50.936;6.848;2023-03-01T11:09:22;102016.31;;;5.59;51.75
53506;BME280;39388;50.936;6.848;2023-03-01T11:11:55;102002.22;;;5.70;51.23
53506;BME280;39388;50.936;6.848;2023-03-01T11:14:27;101991.28;;;5.74;50.71
53506;BME280;39388;50.936;6.848;2023-03-01T11:17:04;101988.84;;;5.77;50.45
53506;BME280;39388;50.936;6.848;2023-03-01T11:19:35;101988.22;;;5.84;51.14
53506;BME280;39388;50.936;6.848;2023-03-01T11:22:12;101971.31;;;5.88;50.92
53506;BME280;39388;50.936;6.848;2023-03-01T11:24:47;101973.47;;;6.02;50.36
53506;BME280;39388;50.936;6.848;2023-03-01T11:27:23;101968.53;;;6.08;50.30
53506;BME280;39388;50.936;6.848;2023-03-01T11:32:44;101957.88;;;6.21;49.65
53506;BME280;39388;50.936;6.848;2023-03-01T11:35:21;101959.84;;;6.28;49.85
53506;BME280;39388;50.936;6.848;2023-03-01T11:40:54;101961.03;;;6.38;49.52
53506;BME280;39388;50.936;6.848;2023-03-01T11:44:08;101945.69;;;6.40;48.86
53506;BME280;39388;50.936;6.848;2023-03-01T11:52:20;101935.78;;;6.51;48.22
53506;BME280;39388;50.936;6.848;2023-03-01T11:55:17;101933.97;;;6.48;48.59
53506;BME280;39388;50.936;6.848;2023-03-01T12:11:53;101918.25;;;6.92;47.67
53506;BME280;39388;50.936;6.848;2023-03-01T12:17:15;101912.41;;;6.98;47.03
53506;BME280;39388;50.936;6.848;2023-03-01T12:25:33;101895.59;;;7.08;47.17
53506;BME280;39388;50.936;6.848;2023-03-01T12:31:16;101891.00;;;7.26;46.69
53506;BME280;39388;50.936;6.848;2023-03-01T12:42:26;101886.97;;;7.36;45.23
53506;BME280;39388;50.936;6.848;2023-03-01T12:48:35;101870.97;;;7.45;45.40
53506;BME280;39388;50.936;6.848;2023-03-01T12:51:14;101857.19;;;7.40;45.55
53506;BME280;39388;50.936;6.848;2023-03-01T12:53:49;101873.72;;;7.51;45.59
53506;BME280;39388;50.936;6.848;2023-03-01T12:56:23;101869.53;;;7.55;45.66
53506;BME280;39388;50.936;6.848;2023-03-01T12:59:05;101871.50;;;7.65;45.96
53506;BME280;39388;50.936;6.848;2023-03-01T13:01:42;101863.91;;;7.70;45.75
53506;BME280;39388;50.936;6.848;2023-03-01T13:15:34;101841.16;;;7.82;44.51
53506;BME280;39388;50.936;6.848;2023-03-01T13:34:02;101835.69;;;8.05;43.24
53506;BME280;39388;50.936;6.848;2023-03-01T13:41:55;101822.94;;;8.09;43.63
53506;BME280;39388;50.936;6.848;2023-03-01T13:44:34;101817.84;;;8.11;43.89
53506;BME280;39388;50.936;6.848;2023-03-01T13:52:39;101809.50;;;8.21;43.68
53506;BME280;39388;50.936;6.848;2023-03-01T13:57:44;101793.22;;;8.21;43.92
53506;BME280;39388;50.936;6.848;2023-03-01T14:03:21;101790.78;;;8.27;44.21
53506;BME280;39388;50.936;6.848;2023-03-01T14:06:14;101795.09;;;8.26;45.00
53506;BME280;39388;50.936;6.848;2023-03-01T14:08:47;101800.25;;;8.30;44.73
53506;BME280;39388;50.936;6.848;2023-03-01T14:14:00;101786.50;;;8.27;44.66
53506;BME280;39388;50.936;6.848;2023-03-01T14:16:53;101781.44;;;8.31;44.82
53506;BME280;39388;50.936;6.848;2023-03-01T14:19:28;101772.81;;;8.27;45.29
53506;BME280;39388;50.936;6.848;2023-03-01T14:24:55;101772.88;;;8.30;44.76
53506;BME280;39388;50.936;6.848;2023-03-01T14:27:30;101755.75;;;8.31;44.78
53506;BME280;39388;50.936;6.848;2023-03-01T14:30:04;101752.41;;;8.35;44.84
53506;BME280;39388;50.936;6.848;2023-03-01T14:32:40;101756.00;;;8.43;44.92
53506;BME280;39388;50.936;6.848;2023-03-01T14:35:41;101754.34;;;8.45;44.92
53506;BME280;39388;50.936;6.848;2023-03-01T14:38:20;101742.38;;;8.46;44.40
53506;BME280;39388;50.936;6.848;2023-03-01T14:40:55;101730.38;;;8.46;44.81
53506;BME280;39388;50.936;6.848;2023-03-01T14:43:29;101736.47;;;8.51;44.77
53506;BME280;39388;50.936;6.848;2023-03-01T14:45:59;101721.97;;;8.53;44.34
53506;BME280;39388;50.936;6.848;2023-03-01T14:48:30;101708.13;;;8.48;44.51
53506;BME280;39388;50.936;6.848;2023-03-01T14:51:04;101711.63;;;8.50;44.30
53506;BME280;39388;50.936;6.848;2023-03-01T14:53:36;101718.41;;;8.47;44.54
53506;BME280;39388;50.936;6.848;2023-03-01T14:56:13;101713.25;;;8.47;44.40
53506;BME280;39388;50.936;6.848;2023-03-01T14:58:44;101713.25;;;8.47;43.97
53506;BME280;39388;50.936;6.848;2023-03-01T15:01:16;101706.41;;;8.47;44.18
53506;BME280;39388;50.936;6.848;2023-03-01T15:03:49;101716.69;;;8.47;44.49
53506;BME280;39388;50.936;6.848;2023-03-01T15:06:22;101701.19;;;8.42;45.13
53506;BME280;39388;50.936;6.848;2023-03-01T15:08:54;101708.97;;;8.46;44.96
53506;BME280;39388;50.936;6.848;2023-03-01T15:11:31;101707.16;;;8.43;45.16
53506;BME280;39388;50.936;6.848;2023-03-01T15:14:41;101708.91;;;8.44;45.36
53506;BME280;39388;50.936;6.848;2023-03-01T15:19:58;101711.44;;;8.41;45.60
53506;BME280;39388;50.936;6.848;2023-03-01T15:22:28;101707.97;;;8.40;45.70
53506;BME280;39388;50.936;6.848;2023-03-01T15:24:59;101696.72;;;8.35;45.87
53506;BME280;39388;50.936;6.848;2023-03-01T15:27:29;101700.25;;;8.39;45.64
53506;BME280;39388;50.936;6.848;2023-03-01T15:30:02;101701.94;;;8.38;45.84
53506;BME280;39388;50.936;6.848;2023-03-01T15:32:36;101697.56;;;8.33;45.94
53506;BME280;39388;50.936;6.848;2023-03-01T15:35:41;101701.84;;;8.34;45.77
53506;BME280;39388;50.936;6.848;2023-03-01T15:41:29;101702.63;;;8.30;45.81
53506;BME280;39388;50.936;6.848;2023-03-01T15:44:26;101696.56;;;8.26;45.83
53506;BME280;39388;50.936;6.848;2023-03-01T15:46:57;101693.00;;;8.21;46.06